createdAt,value
2019-05-05T00:00:28.646Z,83.37
2019-05-05T00:01:28.630Z,83.37
2019-05-05T00:02:29.088Z,83.26
2019-05-05T00:03:28.519Z,83.51
2019-05-05T00:04:28.551Z,83.40
2019-05-05T00:05:28.493Z,84.03
2019-05-05T00:06:28.589Z,84.03
2019-05-05T00:07:28.478Z,84.44
2019-05-05T00:08:28.479Z,83.72
2019-05-05T00:09:28.435Z,84.03
2019-05-05T00:10:28.439Z,84.13
2019-05-05T00:11:28.464Z,84.34
2019-05-05T00:12:29.216Z,84.65
2019-05-05T00:13:28.605Z,84.34
2019-05-05T00:14:28.402Z,84.55
2019-05-05T00:15:28.411Z,84.55
2019-05-05T00:16:28.352Z,84.44
2019-05-05T00:17:28.355Z,84.23
2019-05-05T00:18:28.363Z,84.44
2019-05-05T00:19:32.546Z,84.59
2019-05-05T00:20:28.353Z,84.44
2019-05-05T00:21:28.334Z,84.44
2019-05-05T00:22:28.288Z,84.38
2019-05-05T00:23:28.381Z,84.03
2019-05-05T00:24:28.361Z,84.59
2019-05-05T00:25:28.361Z,85.00
2019-05-05T00:26:29.091Z,84.80
2019-05-05T00:27:28.291Z,84.80
2019-05-05T00:28:28.242Z,84.80
2019-05-05T00:29:28.222Z,84.90
2019-05-05T00:30:28.265Z,85.21
2019-05-05T00:31:28.215Z,85.11
2019-05-05T00:32:28.183Z,85.11
2019-05-05T00:33:28.178Z,85.11
2019-05-05T00:34:28.223Z,85.11
2019-05-05T00:35:28.204Z,85.00
2019-05-05T00:36:28.202Z,85.42
2019-05-05T00:37:28.122Z,85.21
2019-05-05T00:38:28.691Z,85.42
2019-05-05T00:39:28.150Z,85.11
2019-05-05T00:40:28.146Z,85.31
2019-05-05T00:41:28.184Z,84.83
2019-05-05T00:42:28.140Z,85.25
2019-05-05T00:43:28.107Z,85.14
2019-05-05T00:44:28.100Z,85.42
2019-05-05T00:45:28.059Z,85.42
2019-05-05T00:46:28.171Z,85.25
2019-05-05T00:47:28.591Z,85.46
2019-05-05T00:48:28.044Z,85.31
2019-05-05T00:49:28.119Z,85.04
2019-05-05T00:50:28.000Z,85.14
2019-05-05T00:51:28.030Z,85.42
2019-05-05T00:52:28.000Z,85.14
2019-05-05T00:53:27.987Z,84.94
2019-05-05T00:54:27.949Z,85.25
2019-05-05T00:55:28.001Z,84.83
2019-05-05T00:56:28.592Z,84.69
2019-05-05T00:57:27.993Z,84.73
2019-05-05T00:58:27.972Z,85.00
2019-05-05T00:59:28.602Z,84.83
2019-05-05T01:00:27.933Z,85.04
2019-05-05T01:01:27.902Z,84.83
2019-05-05T01:02:27.895Z,85.04
2019-05-05T01:03:27.883Z,85.04
2019-05-05T01:04:28.616Z,85.14
2019-05-05T01:05:28.597Z,85.04
2019-05-05T01:06:28.013Z,85.04
2019-05-05T01:07:27.906Z,85.25
2019-05-05T01:08:28.014Z,85.04
2019-05-05T01:09:27.938Z,85.14
2019-05-05T01:10:28.023Z,85.29
2019-05-05T01:11:27.833Z,85.14
2019-05-05T01:12:27.864Z,85.50
2019-05-05T01:13:27.790Z,85.19
2019-05-05T01:14:27.846Z,85.50
2019-05-05T01:15:28.595Z,84.87
2019-05-05T01:16:27.738Z,85.29
2019-05-05T01:17:27.756Z,85.81
2019-05-05T01:18:27.763Z,85.81
2019-05-05T01:19:28.660Z,85.91
2019-05-05T01:20:27.779Z,85.60
2019-05-05T01:21:27.707Z,85.81
2019-05-05T01:22:27.703Z,85.81
2019-05-05T01:23:28.015Z,86.37
2019-05-05T01:24:28.601Z,86.02
2019-05-05T01:25:27.636Z,85.74
2019-05-05T01:26:27.639Z,86.16
2019-05-05T01:27:27.667Z,85.96
2019-05-05T01:28:27.628Z,86.27
2019-05-05T01:29:27.695Z,86.16
2019-05-05T01:30:27.590Z,86.16
2019-05-05T01:31:27.651Z,86.27
2019-05-05T01:32:27.582Z,86.37
2019-05-05T01:33:27.657Z,86.16
2019-05-05T01:34:27.587Z,86.37
2019-05-05T01:35:27.592Z,86.27
2019-05-05T01:36:27.558Z,86.47
2019-05-05T01:37:27.645Z,86.51
2019-05-05T01:38:27.539Z,86.47
2019-05-05T01:39:27.587Z,86.37
2019-05-05T01:40:27.503Z,86.68
2019-05-05T01:41:27.542Z,86.68
2019-05-05T01:42:27.499Z,86.89
2019-05-05T01:43:27.456Z,86.51
2019-05-05T01:44:27.467Z,87.20
2019-05-05T01:45:27.509Z,87.20
2019-05-05T01:46:27.454Z,87.04
2019-05-05T01:47:27.435Z,87.14
2019-05-05T01:48:27.457Z,87.10
2019-05-05T01:49:27.391Z,87.20
2019-05-05T01:50:27.453Z,87.24
2019-05-05T01:51:27.423Z,86.58
2019-05-05T01:52:27.402Z,87.10
2019-05-05T01:53:27.377Z,86.83
2019-05-05T01:54:27.359Z,87.35
2019-05-05T01:55:27.420Z,87.24
2019-05-05T01:56:27.397Z,87.20
2019-05-05T01:57:27.411Z,87.14
2019-05-05T01:58:27.437Z,87.04
2019-05-05T01:59:27.573Z,87.14
2019-05-05T02:00:27.372Z,87.24
2019-05-05T02:01:27.273Z,87.24
2019-05-05T02:02:27.267Z,87.04
2019-05-05T02:03:27.357Z,87.04
2019-05-05T02:04:27.260Z,87.35
2019-05-05T02:05:27.290Z,87.35
2019-05-05T02:06:27.226Z,87.35
2019-05-05T02:07:27.258Z,87.76
2019-05-05T02:08:28.102Z,87.76
2019-05-05T02:09:27.385Z,88.43
2019-05-05T02:10:27.240Z,88.08
2019-05-05T02:11:27.225Z,87.91
2019-05-05T02:12:27.181Z,87.66
2019-05-05T02:13:27.193Z,87.76
2019-05-05T02:14:27.221Z,87.97
2019-05-05T02:15:28.102Z,87.87
2019-05-05T02:16:27.148Z,87.87
2019-05-05T02:17:27.126Z,88.18
2019-05-05T02:18:27.113Z,87.87
2019-05-05T02:19:27.104Z,88.08
2019-05-05T02:20:29.401Z,88.08
2019-05-05T02:21:27.084Z,88.18
2019-05-05T02:22:27.101Z,87.87
2019-05-05T02:23:27.052Z,88.18
2019-05-05T02:24:27.078Z,88.01
2019-05-05T02:25:27.105Z,87.76
2019-05-05T02:26:27.063Z,87.97
2019-05-05T02:27:27.099Z,88.01
2019-05-05T02:28:27.009Z,87.76
2019-05-05T02:29:27.007Z,87.87
2019-05-05T02:30:26.979Z,87.91
2019-05-05T02:31:26.964Z,87.97
2019-05-05T02:32:26.973Z,88.08
2019-05-05T02:33:26.982Z,88.18
2019-05-05T02:34:26.985Z,87.87
2019-05-05T02:35:26.985Z,87.91
2019-05-05T02:36:26.960Z,87.91
2019-05-05T02:37:26.921Z,88.01
2019-05-05T02:38:26.952Z,88.85
2019-05-05T02:39:27.106Z,88.85
2019-05-05T02:40:26.924Z,88.95
2019-05-05T02:41:26.899Z,88.75
2019-05-05T02:42:26.928Z,88.53
2019-05-05T02:43:27.677Z,88.75
2019-05-05T02:44:26.859Z,89.10
2019-05-05T02:45:26.865Z,89.20
2019-05-05T02:46:26.928Z,89.62
2019-05-05T02:47:26.808Z,89.72
2019-05-05T02:48:26.869Z,89.72
2019-05-05T02:49:26.798Z,90.03
2019-05-05T02:50:26.775Z,89.62
2019-05-05T02:51:26.804Z,89.72
2019-05-05T02:52:26.773Z,89.93
2019-05-05T02:53:26.755Z,90.03
2019-05-05T02:54:26.982Z,90.03
2019-05-05T02:55:26.802Z,89.93
2019-05-05T02:56:26.709Z,90.03
2019-05-05T02:57:27.615Z,90.35
2019-05-05T02:58:26.743Z,90.45
2019-05-05T02:59:26.707Z,90.45
2019-05-05T03:00:26.807Z,90.25
2019-05-05T03:01:27.609Z,90.56
2019-05-05T03:02:26.688Z,90.66
2019-05-05T03:03:26.660Z,90.77
2019-05-05T03:04:26.808Z,90.45
2019-05-05T03:05:26.604Z,90.56
2019-05-05T03:06:27.661Z,90.45
2019-05-05T03:07:26.662Z,90.66
2019-05-05T03:08:26.585Z,90.56
2019-05-05T03:09:27.112Z,90.97
2019-05-05T03:10:27.107Z,90.77
2019-05-05T03:11:26.669Z,90.87
2019-05-05T03:12:26.540Z,90.87
2019-05-05T03:13:26.562Z,91.18
2019-05-05T03:14:26.554Z,91.81
2019-05-05T03:15:27.610Z,91.50
2019-05-05T03:16:27.115Z,91.29
2019-05-05T03:17:26.532Z,91.71
2019-05-05T03:18:26.506Z,91.39
2019-05-05T03:19:26.487Z,91.71
2019-05-05T03:20:26.486Z,92.02
2019-05-05T03:21:26.443Z,91.91
2019-05-05T03:22:26.476Z,91.91
2019-05-05T03:23:26.436Z,92.02
2019-05-05T03:24:26.434Z,92.02
2019-05-05T03:25:26.395Z,92.02
2019-05-05T03:26:26.422Z,92.22
2019-05-05T03:27:26.386Z,92.02
2019-05-05T03:28:26.478Z,91.71
2019-05-05T03:29:26.428Z,92.18
2019-05-05T03:30:26.399Z,92.22
2019-05-05T03:31:26.748Z,91.60
2019-05-05T03:32:26.332Z,91.91
2019-05-05T03:33:26.330Z,92.02
2019-05-05T03:34:26.351Z,92.18
2019-05-05T03:35:37.738Z,91.91
2019-05-05T03:36:26.276Z,92.33
2019-05-05T03:37:35.300Z,92.22
2019-05-05T03:38:26.262Z,91.71
2019-05-05T03:39:26.275Z,92.22
2019-05-05T03:40:35.342Z,92.12
2019-05-05T03:41:26.466Z,91.60
2019-05-05T03:43:48.635Z,92.22
2019-05-05T03:44:57.346Z,92.40
2019-05-05T03:45:48.630Z,92.33
2019-05-05T03:46:48.583Z,92.29
2019-05-05T03:47:48.582Z,92.22
2019-05-05T03:48:48.570Z,92.08
2019-05-05T03:49:48.537Z,92.08
2019-05-05T03:50:58.789Z,92.18
2019-05-05T03:51:48.598Z,91.77
2019-05-05T03:52:48.540Z,91.46
2019-05-05T03:53:48.564Z,91.46
2019-05-05T03:54:48.528Z,91.35
2019-05-05T03:55:48.491Z,91.77
2019-05-05T03:56:48.519Z,91.35
2019-05-05T03:57:48.511Z,91.66
2019-05-05T03:58:48.479Z,91.77
2019-05-05T03:59:48.476Z,91.46
2019-05-05T04:00:48.468Z,91.66
2019-05-05T04:01:48.512Z,91.77
2019-05-05T04:02:48.443Z,91.66
2019-05-05T04:03:48.423Z,91.56
2019-05-05T04:04:48.404Z,91.77
2019-05-05T04:05:48.454Z,91.66
2019-05-05T04:06:48.445Z,91.56
2019-05-05T04:07:48.390Z,91.62
2019-05-05T04:08:48.414Z,91.62
2019-05-05T04:09:48.362Z,91.31
2019-05-05T04:10:48.425Z,90.79
2019-05-05T04:11:48.377Z,90.79
2019-05-05T04:12:48.437Z,91.00
2019-05-05T04:13:48.343Z,90.68
2019-05-05T04:14:48.340Z,90.54
2019-05-05T04:15:48.353Z,90.22
2019-05-05T04:16:48.277Z,90.54
2019-05-05T04:17:48.300Z,90.44
2019-05-05T04:18:48.246Z,90.01
2019-05-05T04:19:48.310Z,89.81
2019-05-05T04:20:48.254Z,89.70
2019-05-05T04:21:48.239Z,89.45
2019-05-05T04:22:48.311Z,89.87
2019-05-05T04:23:48.257Z,89.35
2019-05-05T04:24:48.225Z,89.45
2019-05-05T04:25:48.211Z,88.83
2019-05-05T04:26:48.202Z,88.79
2019-05-05T04:27:48.231Z,88.06
2019-05-05T04:28:48.156Z,88.17
2019-05-05T04:29:48.704Z,87.65
2019-05-05T04:30:48.147Z,87.12
2019-05-05T04:31:48.142Z,86.81
2019-05-05T04:32:48.095Z,86.91
2019-05-05T04:33:48.154Z,87.19
2019-05-05T04:34:48.107Z,86.15
2019-05-05T04:35:48.089Z,86.67
2019-05-05T04:36:48.206Z,86.25
2019-05-05T04:37:48.117Z,86.25
2019-05-05T04:38:48.051Z,86.04
2019-05-05T04:39:48.059Z,85.94
2019-05-05T04:40:48.046Z,85.63
2019-05-05T04:41:48.092Z,85.83
2019-05-05T04:42:48.019Z,85.73
2019-05-05T04:43:48.018Z,85.69
2019-05-05T04:44:48.027Z,85.31
2019-05-05T04:45:47.993Z,84.90
2019-05-05T04:46:47.980Z,85.31
2019-05-05T04:47:47.992Z,85.17
2019-05-05T04:48:47.941Z,85.17
2019-05-05T04:49:48.004Z,85.17
2019-05-05T04:50:47.957Z,84.75
2019-05-05T04:51:50.436Z,84.96
2019-05-05T04:52:47.938Z,84.61
2019-05-05T04:53:47.890Z,84.41
2019-05-05T04:54:47.904Z,84.51
2019-05-05T04:55:47.982Z,84.41
2019-05-05T04:56:47.848Z,84.09
2019-05-05T04:57:47.851Z,84.05
2019-05-05T04:58:47.931Z,83.68
2019-05-05T04:59:47.876Z,83.84
2019-05-05T05:00:47.846Z,83.84
2019-05-05T05:01:47.849Z,83.18
2019-05-05T05:02:47.802Z,83.53
2019-05-05T05:03:47.833Z,83.18
2019-05-05T05:04:47.812Z,82.98
2019-05-05T05:05:47.754Z,82.87
2019-05-05T05:06:47.771Z,82.35
2019-05-05T05:07:47.754Z,82.73
2019-05-05T05:08:47.737Z,82.63
2019-05-05T05:09:47.810Z,82.63
2019-05-05T05:10:47.711Z,81.90
2019-05-05T05:11:47.872Z,81.59
2019-05-05T05:12:47.718Z,81.38
2019-05-05T05:13:47.713Z,81.24
2019-05-05T05:14:47.650Z,81.18
2019-05-05T05:15:47.668Z,80.52
2019-05-05T05:16:47.679Z,80.52
2019-05-05T05:17:47.647Z,80.83
2019-05-05T05:18:47.628Z,80.52
2019-05-05T05:19:47.701Z,80.31
2019-05-05T05:20:47.602Z,80.37
2019-05-05T05:21:58.452Z,79.44
2019-05-05T05:22:48.596Z,79.65
2019-05-05T05:23:47.602Z,79.55
2019-05-05T05:24:47.593Z,79.75
2019-05-05T05:25:47.543Z,78.89
2019-05-05T05:26:47.613Z,78.92
2019-05-05T05:27:47.550Z,79.03
2019-05-05T05:28:47.625Z,78.99
2019-05-05T05:29:47.552Z,78.89
2019-05-05T05:30:47.575Z,78.99
2019-05-05T05:31:47.513Z,78.78
2019-05-05T05:32:47.583Z,78.23
2019-05-05T05:33:47.504Z,78.16
2019-05-05T05:34:47.497Z,77.92
2019-05-05T05:35:47.463Z,77.92
2019-05-05T05:36:47.491Z,78.12
2019-05-05T05:37:47.623Z,77.71
2019-05-05T05:38:47.451Z,77.61
2019-05-05T05:39:47.451Z,77.26
2019-05-05T05:40:47.513Z,77.47
2019-05-05T05:41:47.446Z,77.22
2019-05-05T05:42:47.418Z,76.50
2019-05-05T05:43:47.506Z,76.29
2019-05-05T05:44:47.405Z,75.88
2019-05-05T05:45:47.608Z,75.88
2019-05-05T05:46:47.346Z,75.88
2019-05-05T05:47:47.379Z,75.67
2019-05-05T05:48:48.213Z,75.57
2019-05-05T05:49:47.339Z,75.46
2019-05-05T05:50:47.300Z,75.46
2019-05-05T05:51:47.345Z,75.46
2019-05-05T05:52:47.324Z,75.32
2019-05-05T05:53:47.288Z,74.91
2019-05-05T05:54:47.232Z,74.71
2019-05-05T05:55:47.245Z,74.60
2019-05-05T05:56:47.246Z,73.57
2019-05-05T05:57:47.212Z,74.40
2019-05-05T05:58:47.203Z,73.88
2019-05-05T05:59:47.218Z,74.08
2019-05-05T06:00:47.206Z,73.67
2019-05-05T06:01:47.232Z,73.43
2019-05-05T06:02:47.160Z,73.84
2019-05-05T06:03:47.164Z,74.02
2019-05-05T06:04:47.177Z,73.71
2019-05-05T06:05:47.161Z,73.19
2019-05-05T06:06:47.165Z,72.67
2019-05-05T06:07:47.120Z,72.67
2019-05-05T06:08:47.090Z,72.33
2019-05-05T06:09:47.123Z,72.33
2019-05-05T06:10:47.085Z,71.88
2019-05-05T06:11:47.084Z,71.67
2019-05-05T06:12:47.123Z,71.47
2019-05-05T06:13:47.617Z,70.95
2019-05-05T06:14:47.023Z,71.02
2019-05-05T06:15:47.079Z,70.51
2019-05-05T06:16:47.031Z,70.72
2019-05-05T06:17:47.015Z,70.09
2019-05-05T06:18:46.996Z,70.20
2019-05-05T06:19:46.989Z,69.85
2019-05-05T06:20:46.985Z,70.27
2019-05-05T06:21:46.973Z,70.06
2019-05-05T06:22:46.990Z,69.96
2019-05-05T06:23:46.959Z,69.54
2019-05-05T06:24:47.009Z,69.34
2019-05-05T06:25:46.943Z,69.20
2019-05-05T06:26:46.908Z,69.00
2019-05-05T06:27:46.907Z,68.96
2019-05-05T06:28:46.945Z,68.14
2019-05-05T06:29:46.893Z,67.76
2019-05-05T06:30:46.935Z,68.79
2019-05-05T06:31:46.906Z,68.04
2019-05-05T06:32:46.851Z,68.24
2019-05-05T06:33:46.876Z,67.63
2019-05-05T06:34:46.861Z,67.49
2019-05-05T06:35:46.883Z,68.01
2019-05-05T06:36:46.803Z,67.25
2019-05-05T06:37:46.798Z,67.05
2019-05-05T06:38:46.880Z,66.64
2019-05-05T06:39:46.800Z,66.84
2019-05-05T06:40:46.768Z,65.61
2019-05-05T06:41:46.757Z,65.81
2019-05-05T06:42:46.756Z,65.71
2019-05-05T06:43:46.800Z,65.58
2019-05-05T06:44:46.801Z,65.58
2019-05-05T06:45:46.735Z,65.47
2019-05-05T06:46:46.774Z,65.16
2019-05-05T06:47:46.712Z,65.55
2019-05-05T06:48:46.697Z,65.65
2019-05-05T06:49:46.747Z,65.55
2019-05-05T06:50:46.712Z,64.72
2019-05-05T06:51:46.717Z,64.18
2019-05-05T06:52:47.239Z,64.00
2019-05-05T06:53:46.651Z,64.51
2019-05-05T06:54:46.669Z,64.21
2019-05-05T06:55:46.655Z,63.97
2019-05-05T06:56:46.670Z,63.97
2019-05-05T06:57:46.689Z,63.97
2019-05-05T06:58:46.631Z,63.97
2019-05-05T06:59:46.620Z,64.04
2019-05-05T07:00:46.571Z,64.04
2019-05-05T07:01:46.622Z,63.53
2019-05-05T07:02:46.629Z,63.09
2019-05-05T07:03:46.853Z,63.71
2019-05-05T07:04:46.540Z,63.17
2019-05-05T07:05:47.225Z,62.04
2019-05-05T07:06:54.188Z,61.32
2019-05-05T07:07:47.545Z,61.72
2019-05-05T07:08:46.736Z,61.80
2019-05-05T07:09:46.475Z,61.11
2019-05-05T07:10:46.476Z,60.19
2019-05-05T07:11:46.476Z,60.80
2019-05-05T07:12:46.425Z,60.70
2019-05-05T07:13:46.422Z,60.70
2019-05-05T07:14:46.416Z,61.39
2019-05-05T07:15:46.466Z,60.16
2019-05-05T07:16:46.379Z,59.95
2019-05-05T07:17:46.480Z,60.26
2019-05-05T07:18:46.388Z,60.36
2019-05-05T07:19:46.455Z,60.67
2019-05-05T07:20:46.357Z,60.26
2019-05-05T07:21:46.341Z,60.26
2019-05-05T07:22:58.832Z,60.47
2019-05-05T07:23:47.345Z,60.13
2019-05-05T07:24:46.299Z,60.13
2019-05-05T07:25:46.371Z,59.72
2019-05-05T07:26:46.274Z,59.89
2019-05-05T07:27:46.279Z,58.97
2019-05-05T07:28:46.280Z,59.28
2019-05-05T07:29:46.278Z,58.64
2019-05-05T07:30:46.236Z,57.71
2019-05-05T07:31:46.260Z,58.00
2019-05-05T07:32:46.228Z,57.20
2019-05-05T07:33:46.237Z,56.77
2019-05-05T07:34:46.195Z,56.67
2019-05-05T07:35:56.137Z,56.15
2019-05-05T07:36:47.178Z,55.74
2019-05-05T07:37:46.206Z,56.33
2019-05-05T07:38:46.153Z,56.54
2019-05-05T07:39:46.165Z,55.18
2019-05-05T07:40:46.133Z,55.21
2019-05-05T07:41:46.139Z,55.51
2019-05-05T07:42:46.163Z,55.30
2019-05-05T07:43:46.102Z,54.28
2019-05-05T07:44:46.111Z,54.87
2019-05-05T07:45:46.120Z,54.97
2019-05-05T07:46:46.082Z,54.57
2019-05-05T07:47:47.537Z,54.77
2019-05-05T07:48:46.115Z,54.57
2019-05-05T07:49:46.034Z,54.36
2019-05-05T07:50:58.120Z,53.75
2019-05-05T07:51:47.074Z,54.36
2019-05-05T07:52:46.023Z,54.44
2019-05-05T07:53:45.988Z,53.92
2019-05-05T07:54:46.022Z,52.51
2019-05-05T07:55:45.970Z,53.54
2019-05-05T07:56:45.979Z,52.92
2019-05-05T07:57:45.950Z,52.90
2019-05-05T07:58:46.781Z,53.21
2019-05-05T07:59:45.951Z,52.26
2019-05-05T08:00:45.916Z,51.98
2019-05-05T08:01:46.689Z,51.18
2019-05-05T08:02:45.913Z,49.85
2019-05-05T08:03:45.913Z,49.44
2019-05-05T08:04:45.927Z,49.44
2019-05-05T08:05:45.907Z,49.01
2019-05-05T08:06:45.864Z,49.11
2019-05-05T08:07:45.878Z,50.22
2019-05-05T08:08:45.942Z,50.22
2019-05-05T08:09:45.842Z,50.40
2019-05-05T08:10:45.842Z,50.48
2019-05-05T08:11:45.846Z,49.43
2019-05-05T08:12:45.801Z,46.37
2019-05-05T08:13:45.789Z,46.04
2019-05-05T08:14:45.839Z,47.27
2019-05-05T08:15:56.935Z,47.49
2019-05-05T08:16:46.755Z,47.82
2019-05-05T08:17:45.735Z,46.70
2019-05-05T08:18:45.742Z,47.57
2019-05-05T08:19:45.727Z,46.86
2019-05-05T08:20:45.882Z,46.88
2019-05-05T08:21:45.706Z,45.57
2019-05-05T08:22:45.747Z,45.31
2019-05-05T08:23:45.673Z,46.37
2019-05-05T08:24:45.710Z,46.50
2019-05-05T08:25:45.684Z,47.19
2019-05-05T08:26:45.728Z,46.97
2019-05-05T08:27:45.652Z,47.05
2019-05-05T08:28:45.637Z,46.03
2019-05-05T08:29:45.608Z,45.29
2019-05-05T08:30:45.701Z,46.08
2019-05-05T08:31:45.614Z,46.06
2019-05-05T08:32:45.604Z,45.06
2019-05-05T08:33:45.725Z,46.08
2019-05-05T08:34:57.278Z,45.67
2019-05-05T08:35:46.570Z,46.31
2019-05-05T08:36:45.590Z,45.92
2019-05-05T08:37:45.546Z,46.12
2019-05-05T08:38:45.598Z,46.44
2019-05-05T08:39:45.510Z,45.80
2019-05-05T08:40:45.512Z,44.65
2019-05-05T08:41:47.469Z,44.20
2019-05-05T08:42:45.497Z,43.29
2019-05-05T08:43:45.512Z,44.10
2019-05-05T08:44:45.558Z,44.20
2019-05-05T08:45:45.446Z,42.76
2019-05-05T08:46:45.507Z,43.55
2019-05-05T08:47:46.326Z,41.59
2019-05-05T08:48:45.403Z,41.10
2019-05-05T08:49:45.393Z,41.00
2019-05-05T08:50:45.415Z,41.51
2019-05-05T08:51:45.376Z,41.24
2019-05-05T08:52:45.531Z,41.69
2019-05-05T08:53:48.134Z,42.81
2019-05-05T08:54:45.356Z,41.89
2019-05-05T08:55:45.346Z,41.77
2019-05-05T08:56:45.340Z,41.04
2019-05-05T08:57:45.321Z,40.95
2019-05-05T08:58:45.365Z,41.49
2019-05-05T08:59:45.387Z,40.67
2019-05-05T09:00:45.274Z,40.89
2019-05-05T09:01:45.368Z,41.91
2019-05-05T09:02:45.284Z,41.30
2019-05-05T09:03:45.268Z,40.36
2019-05-05T09:04:45.252Z,39.32
2019-05-05T09:05:45.229Z,39.20
2019-05-05T09:06:45.287Z,40.65
2019-05-05T09:07:45.247Z,41.67
2019-05-05T09:08:45.238Z,40.85
2019-05-05T09:09:45.208Z,39.92
2019-05-05T09:10:45.180Z,39.20
2019-05-05T09:11:45.199Z,39.57
2019-05-05T09:12:45.165Z,38.76
2019-05-05T09:13:45.228Z,39.00
2019-05-05T09:14:45.153Z,40.44
2019-05-05T09:15:45.160Z,41.08
2019-05-05T09:16:45.120Z,40.67
2019-05-05T09:17:45.120Z,39.78
2019-05-05T09:18:45.107Z,40.60
2019-05-05T09:19:45.128Z,40.91
2019-05-05T09:20:45.142Z,41.44
2019-05-05T09:21:45.075Z,40.54
2019-05-05T09:22:46.043Z,41.99
2019-05-05T09:23:58.633Z,42.61
2019-05-05T09:24:46.061Z,42.99
2019-05-05T09:25:45.017Z,40.40
2019-05-05T09:26:45.012Z,40.89
2019-05-05T09:27:44.990Z,40.05
2019-05-05T09:28:45.025Z,39.10
2019-05-05T09:29:45.036Z,39.59
2019-05-05T09:30:44.992Z,39.06
2019-05-05T09:31:45.169Z,39.06
2019-05-05T09:32:44.947Z,37.84
2019-05-05T09:33:44.927Z,36.53
2019-05-05T09:34:44.940Z,37.74
2019-05-05T09:35:44.944Z,38.33
2019-05-05T09:36:44.927Z,36.27
2019-05-05T09:37:44.900Z,36.16
2019-05-05T09:38:45.082Z,35.46
2019-05-05T09:39:44.915Z,34.63
2019-05-05T09:40:44.872Z,34.34
2019-05-05T09:41:44.866Z,35.03
2019-05-05T09:42:44.894Z,34.83
2019-05-05T09:43:44.873Z,34.63
2019-05-05T09:44:44.815Z,33.98
2019-05-05T09:45:44.832Z,33.78
2019-05-05T09:46:44.818Z,34.41
2019-05-05T09:47:45.048Z,35.63
2019-05-05T09:48:44.798Z,34.49
2019-05-05T09:49:44.808Z,34.78
2019-05-05T09:50:44.779Z,34.68
2019-05-05T09:51:44.795Z,34.58
2019-05-05T09:52:44.786Z,34.66
2019-05-05T09:53:44.973Z,34.77
2019-05-05T09:54:44.737Z,35.80
2019-05-05T09:55:44.716Z,36.63
2019-05-05T09:56:44.699Z,35.32
2019-05-05T09:57:44.726Z,36.55
2019-05-05T09:58:44.757Z,32.68
2019-05-05T09:59:44.728Z,32.60
2019-05-05T10:00:44.744Z,34.05
2019-05-05T10:01:44.714Z,34.06
2019-05-05T10:02:44.690Z,34.37
2019-05-05T10:03:44.786Z,35.20
2019-05-05T10:04:44.644Z,35.63
2019-05-05T10:05:44.644Z,36.05
2019-05-05T10:06:47.741Z,36.36
2019-05-05T10:07:54.464Z,36.77
2019-05-05T10:08:53.929Z,36.79
2019-05-05T10:09:44.611Z,37.18
2019-05-05T10:10:44.562Z,36.17
2019-05-05T10:12:55.725Z,36.87
2019-05-05T10:13:55.725Z,37.79
2019-05-05T10:15:07.464Z,37.18
2019-05-05T10:16:05.084Z,36.66
2019-05-05T10:16:55.704Z,37.46
2019-05-05T10:17:55.653Z,36.75
2019-05-05T10:18:55.663Z,37.16
2019-05-05T10:19:55.640Z,37.36
2019-05-05T10:20:55.670Z,37.65
2019-05-05T10:21:55.657Z,36.31
2019-05-05T10:22:55.600Z,36.21
2019-05-05T10:23:56.580Z,36.53
2019-05-05T10:24:57.569Z,37.24
2019-05-05T10:28:54.300Z,36.85
2019-05-05T10:29:45.813Z,36.32
2019-05-05T10:30:45.781Z,36.65
2019-05-05T10:31:45.683Z,36.44
2019-05-05T10:32:46.604Z,36.75
2019-05-05T10:33:45.600Z,36.44
2019-05-05T10:34:45.604Z,36.44
2019-05-05T10:35:45.659Z,36.55
2019-05-05T10:36:45.620Z,37.16
2019-05-05T10:37:45.655Z,36.56
2019-05-05T10:38:45.628Z,37.46
2019-05-05T10:39:45.679Z,36.15
2019-05-05T10:40:48.249Z,36.96
2019-05-05T10:41:46.417Z,36.65
2019-05-05T10:42:45.572Z,36.73
2019-05-05T10:43:45.640Z,36.85
2019-05-05T10:44:45.520Z,36.63
2019-05-05T10:45:45.505Z,36.22
2019-05-05T10:46:46.256Z,35.92
2019-05-05T10:47:46.251Z,36.22
2019-05-05T10:48:49.345Z,36.10
2019-05-05T10:49:45.515Z,35.69
2019-05-05T10:50:45.530Z,34.66
2019-05-05T10:51:45.619Z,35.99
2019-05-05T10:52:45.467Z,35.77
2019-05-05T10:53:45.478Z,34.13
2019-05-05T10:54:45.877Z,33.83
2019-05-05T10:55:46.255Z,33.11
2019-05-05T10:56:46.253Z,33.93
2019-05-05T10:57:45.395Z,34.23
2019-05-05T10:58:46.267Z,33.32
2019-05-05T10:59:45.473Z,32.91
2019-05-05T11:00:45.316Z,34.25
2019-05-05T11:01:46.756Z,35.27
2019-05-05T11:02:45.392Z,34.56
2019-05-05T11:03:45.325Z,34.97
2019-05-05T11:04:45.347Z,34.42
2019-05-05T11:05:49.797Z,33.83
2019-05-05T11:06:54.621Z,33.11
2019-05-05T11:07:46.255Z,32.90
2019-05-05T11:08:45.755Z,33.42
2019-05-05T11:09:45.344Z,33.40
2019-05-05T11:10:47.768Z,32.71
2019-05-05T11:11:46.764Z,33.62
2019-05-05T11:14:49.823Z,33.73
2019-05-05T11:15:40.424Z,33.62
2019-05-05T11:16:43.746Z,34.01
2019-05-05T11:17:43.932Z,32.68
2019-05-05T11:18:39.428Z,31.76
2019-05-05T11:19:39.257Z,30.93
2019-05-05T11:20:39.265Z,30.51
2019-05-05T11:21:39.302Z,30.30
2019-05-05T11:22:39.343Z,29.28
2019-05-05T11:26:24.939Z,28.14
2019-05-05T11:27:25.287Z,28.34
2019-05-05T11:28:25.132Z,26.52
2019-05-05T11:29:25.618Z,26.92
2019-05-05T11:35:13.900Z,32.76
2019-05-05T11:36:14.090Z,32.56
2019-05-05T11:37:11.120Z,33.90
2019-05-05T11:38:10.640Z,33.80
2019-05-05T11:39:48.392Z,33.90
2019-05-05T11:40:10.571Z,34.10
2019-05-05T11:41:10.611Z,33.69
2019-05-05T11:42:10.555Z,33.59
2019-05-05T11:43:10.548Z,33.80
2019-05-05T11:44:10.502Z,33.90
2019-05-05T11:45:10.546Z,33.90
2019-05-05T11:46:10.504Z,34.71
2019-05-05T11:47:10.511Z,33.29
2019-05-05T11:48:10.496Z,33.90
2019-05-05T11:49:10.469Z,33.80
2019-05-05T11:50:10.455Z,33.69
2019-05-05T11:51:10.429Z,32.78
2019-05-05T11:52:10.427Z,32.66
2019-05-05T11:53:10.453Z,33.27
2019-05-05T11:54:10.999Z,33.58
2019-05-05T11:55:12.236Z,34.39
2019-05-05T11:56:10.361Z,33.78
2019-05-05T11:57:10.418Z,32.25
2019-05-05T11:58:10.329Z,32.15
2019-05-05T11:59:10.364Z,32.25
2019-05-05T12:00:10.486Z,32.35
2019-05-05T12:01:10.307Z,32.75
2019-05-05T12:02:10.347Z,32.44
2019-05-05T12:03:10.364Z,31.64
2019-05-05T12:04:10.297Z,31.54
2019-05-05T12:05:10.335Z,31.43
2019-05-05T12:06:10.318Z,31.83
2019-05-05T12:07:10.347Z,31.74
2019-05-05T12:08:10.267Z,31.74
2019-05-05T12:09:10.265Z,30.71
2019-05-05T12:10:10.260Z,30.80
2019-05-05T12:11:10.246Z,30.99
2019-05-05T12:12:10.261Z,30.07
2019-05-05T12:13:11.072Z,30.04
2019-05-05T12:14:10.256Z,29.54
2019-05-05T12:15:10.185Z,28.83
2019-05-05T12:16:10.146Z,27.19
2019-05-05T12:17:10.177Z,25.67
2019-05-05T12:18:10.122Z,23.54
2019-05-05T12:19:10.154Z,24.33
2019-05-05T12:20:10.136Z,24.49
2019-05-05T12:21:10.172Z,23.13
2019-05-05T12:22:10.120Z,22.99
2019-05-05T12:23:10.179Z,22.50
2019-05-05T12:24:10.153Z,23.42
2019-05-05T12:25:23.366Z,23.29
2019-05-05T12:26:11.084Z,22.88
2019-05-05T12:27:10.038Z,22.66
2019-05-05T12:28:10.053Z,23.32
2019-05-05T12:29:10.052Z,21.48
2019-05-05T12:30:10.873Z,21.48
2019-05-05T12:31:10.057Z,22.06
2019-05-05T12:32:14.846Z,23.18
2019-05-05T12:33:10.965Z,24.27
2019-05-05T12:34:09.984Z,24.11
2019-05-05T12:35:09.955Z,25.00
2019-05-05T12:36:10.103Z,26.35
2019-05-05T12:37:10.513Z,26.20
2019-05-05T12:38:10.517Z,27.93
2019-05-05T12:39:10.514Z,28.55
2019-05-05T12:40:09.893Z,28.29
2019-05-05T12:41:09.924Z,29.01
2019-05-05T12:42:09.983Z,29.56
2019-05-05T12:43:10.206Z,29.67
2019-05-05T12:44:10.783Z,31.02
2019-05-05T12:45:10.581Z,31.99
2019-05-05T12:46:10.520Z,32.12
2019-05-05T12:47:09.829Z,33.58
2019-05-05T12:48:09.909Z,34.39
2019-05-05T12:49:09.799Z,33.37
2019-05-05T12:50:09.776Z,34.31
2019-05-05T12:51:10.534Z,34.22
2019-05-05T12:52:09.754Z,34.22
2019-05-05T12:53:09.751Z,34.73
2019-05-05T12:54:09.820Z,34.42
2019-05-05T12:55:10.576Z,34.42
2019-05-05T12:56:12.020Z,34.01
2019-05-05T12:57:09.857Z,33.81
2019-05-05T12:58:10.529Z,34.12
2019-05-05T12:59:09.860Z,33.52
2019-05-05T13:00:09.705Z,34.44
2019-05-05T13:01:09.683Z,33.73
2019-05-05T13:02:09.724Z,33.73
2019-05-05T13:03:09.700Z,34.12
2019-05-05T13:04:09.674Z,33.81
2019-05-05T13:05:09.650Z,34.12
2019-05-05T13:06:09.636Z,33.81
2019-05-05T13:07:09.668Z,33.40